Time;durP1;ratioP1;P1;durP2;ratioP2;P2;SDS_P1;SDS_P2;PMS_P1;PMS_P2;Temp;Humidity;BMP_temperature;BMP_pressure;BME280_temperature;BME280_humidity;BME280_pressure;Samples;Min_cycle;Max_cycle;Signal;HPM_P1;HPM_P2
2023/09/26 00:01:28;;;;;;;0.28;0.28;;;;;;;;;;4964915;28;20046;-89
2023/09/26 00:03:54;;;;;;;0.10;0.10;;;;;;;;;;4963680;28;20300;-89
2023/09/26 00:06:21;;;;;;;0.15;0.15;;;;;;;;;;4964757;28;20049;-89
2023/09/26 00:08:47;;;;;;;0.20;0.20;;;;;;;;;;4947760;28;20490;-88
2023/09/26 00:11:13;;;;;;;0.20;0.20;;;;;;;;;;4963542;28;20388;-88
2023/09/26 00:13:39;;;;;;;0.20;0.20;;;;;;;;;;4963613;28;20511;-86
2023/09/26 00:16:06;;;;;;;0.30;0.30;;;;;;;;;;4963364;28;20038;-88
2023/09/26 00:18:34;;;;;;;0.20;0.20;;;;;;;;;;4963517;28;20034;-88
2023/09/26 00:21:00;;;;;;;0.10;0.10;;;;;;;;;;4964391;28;20081;-88
2023/09/26 00:23:26;;;;;;;0.20;0.20;;;;;;;;;;4963398;28;20400;-89
2023/09/26 00:25:52;;;;;;;0.20;0.20;;;;;;;;;;4964028;28;20100;-87
2023/09/26 00:28:18;;;;;;;0.30;0.30;;;;;;;;;;4979107;28;20054;-88
2023/09/26 00:30:44;;;;;;;0.25;0.25;;;;;;;;;;4963724;28;20521;-88
2023/09/26 00:33:10;;;;;;;0.20;0.20;;;;;;;;;;4962510;28;20042;-87
2023/09/26 00:35:36;;;;;;;0.30;0.30;;;;;;;;;;4963538;28;20047;-89
2023/09/26 00:38:02;;;;;;;0.30;0.30;;;;;;;;;;4977204;28;20393;-87
2023/09/26 00:40:28;;;;;;;0.20;0.20;;;;;;;;;;4943983;29;20039;-89
2023/09/26 00:42:54;;;;;;;0.25;0.25;;;;;;;;;;4965563;28;20408;-88
2023/09/26 00:45:20;;;;;;;0.20;0.20;;;;;;;;;;4962899;28;20459;-89
2023/09/26 00:47:47;;;;;;;0.20;0.20;;;;;;;;;;4961804;28;20094;-88
2023/09/26 00:50:13;;;;;;;0.20;0.20;;;;;;;;;;4963688;28;20043;-89
2023/09/26 00:52:44;;;;;;;0.20;0.20;;;;;;;;;;4979200;28;20038;-84
2023/09/26 00:55:11;;;;;;;0.20;0.20;;;;;;;;;;4962421;28;20038;-89
2023/09/26 00:57:37;;;;;;;0.30;0.30;;;;;;;;;;4961662;28;20113;-88
2023/09/26 01:00:04;;;;;;;0.20;0.20;;;;;;;;;;4962252;28;20097;-88
2023/09/26 01:02:31;;;;;;;0.32;0.32;;;;;;;;;;4962122;28;20470;-88
2023/09/26 01:04:58;;;;;;;0.17;0.17;;;;;;;;;;4962210;28;20053;-89
2023/09/26 01:07:25;;;;;;;0.30;0.30;;;;;;;;;;4962618;28;20844;-88
2023/09/26 01:09:51;;;;;;;0.20;0.20;;;;;;;;;;4962110;28;20033;-89
2023/09/26 01:12:17;;;;;;;0.20;0.20;;;;;;;;;;4962184;28;20042;-87
2023/09/26 01:14:43;;;;;;;0.20;0.20;;;;;;;;;;4978065;28;20055;-89
2023/09/26 01:17:09;;;;;;;0.20;0.20;;;;;;;;;;4961919;28;20050;-89
2023/09/26 01:19:35;;;;;;;0.20;0.20;;;;;;;;;;4962089;28;20487;-88
2023/09/26 01:22:02;;;;;;;0.20;0.20;;;;;;;;;;4978887;28;20039;-88
2023/09/26 01:24:28;;;;;;;0.20;0.20;;;;;;;;;;4978671;28;20049;-89
2023/09/26 01:26:55;;;;;;;0.35;0.35;;;;;;;;;;4962204;28;20121;-88
2023/09/26 01:29:21;;;;;;;0.20;0.20;;;;;;;;;;4961823;28;20122;-89
2023/09/26 01:31:47;;;;;;;0.20;0.20;;;;;;;;;;4977834;28;20081;-88
2023/09/26 01:34:13;;;;;;;0.15;0.15;;;;;;;;;;4977816;28;20039;-87
2023/09/26 01:36:39;;;;;;;0.22;0.22;;;;;;;;;;4962099;28;20089;-87
2023/09/26 01:39:05;;;;;;;0.20;0.20;;;;;;;;;;4961138;28;20077;-87
2023/09/26 01:41:32;;;;;;;0.35;0.35;;;;;;;;;;4961518;28;20100;-89
2023/09/26 01:43:59;;;;;;;0.20;0.20;;;;;;;;;;4961465;28;20043;-88
2023/09/26 01:46:26;;;;;;;0.30;0.30;;;;;;;;;;4962089;28;20086;-88
2023/09/26 01:48:52;;;;;;;0.20;0.20;;;;;;;;;;4960952;28;20068;-89
2023/09/26 01:51:19;;;;;;;0.20;0.20;;;;;;;;;;4962517;28;20053;-87
2023/09/26 01:53:45;;;;;;;0.30;0.30;;;;;;;;;;4960905;28;20078;-89
2023/09/26 01:56:11;;;;;;;0.20;0.20;;;;;;;;;;4962341;28;20074;-88
2023/09/26 01:58:37;;;;;;;0.20;0.20;;;;;;;;;;4960868;28;20402;-89
2023/09/26 02:01:03;;;;;;;0.20;0.20;;;;;;;;;;4961740;28;20390;-89
2023/09/26 02:03:29;;;;;;;0.20;0.20;;;;;;;;;;4961762;28;20039;-89
2023/09/26 02:05:57;;;;;;;0.20;0.20;;;;;;;;;;4963165;28;20043;-89
2023/09/26 02:08:23;;;;;;;0.20;0.20;;;;;;;;;;4960826;28;20096;-87
2023/09/26 02:10:49;;;;;;;0.10;0.10;;;;;;;;;;4961763;28;20491;-89
2023/09/26 02:13:16;;;;;;;0.10;0.10;;;;;;;;;;4960750;28;20049;-88
2023/09/26 02:15:42;;;;;;;0.13;0.13;;;;;;;;;;4978468;28;20050;-89
2023/09/26 02:18:08;;;;;;;0.15;0.15;;;;;;;;;;4961448;28;20566;-88
2023/09/26 02:20:34;;;;;;;0.30;0.30;;;;;;;;;;4961652;28;20078;-89
2023/09/26 02:23:00;;;;;;;0.28;0.28;;;;;;;;;;4961165;28;20637;-89
2023/09/26 02:25:28;;;;;;;0.30;0.30;;;;;;;;;;4961459;28;20053;-89
2023/09/26 02:27:54;;;;;;;0.32;0.32;;;;;;;;;;4961057;28;20053;-88
2023/09/26 02:30:21;;;;;;;0.28;0.28;;;;;;;;;;4977474;28;20038;-88
2023/09/26 02:32:47;;;;;;;0.30;0.30;;;;;;;;;;4960820;28;20034;-89
2023/09/26 02:35:14;;;;;;;0.28;0.28;;;;;;;;;;4962661;28;20101;-88
2023/09/26 02:37:40;;;;;;;0.30;0.30;;;;;;;;;;4959526;28;20034;-88
2023/09/26 02:40:07;;;;;;;0.30;0.30;;;;;;;;;;4960588;28;20035;-86
2023/09/26 02:42:33;;;;;;;0.22;0.22;;;;;;;;;;4960557;28;20555;-88
2023/09/26 02:45:00;;;;;;;0.25;0.25;;;;;;;;;;4961519;28;20049;-90
2023/09/26 02:47:26;;;;;;;0.20;0.20;;;;;;;;;;4960453;28;20050;-89
2023/09/26 02:49:53;;;;;;;0.20;0.20;;;;;;;;;;4961416;28;20116;-89
2023/09/26 02:52:20;;;;;;;0.10;0.10;;;;;;;;;;4961272;28;20508;-85
2023/09/26 02:54:47;;;;;;;0.10;0.10;;;;;;;;;;4960125;28;20533;-88
2023/09/26 02:57:14;;;;;;;0.20;0.20;;;;;;;;;;4960390;28;20034;-88
2023/09/26 02:59:40;;;;;;;0.30;0.30;;;;;;;;;;4960177;28;20034;-89
2023/09/26 03:02:06;;;;;;;0.30;0.30;;;;;;;;;;4960496;28;20039;-89
2023/09/26 03:04:34;;;;;;;0.20;0.20;;;;;;;;;;4960490;28;20042;-88
2023/09/26 03:07:01;;;;;;;0.15;0.15;;;;;;;;;;4961332;28;20033;-89
2023/09/26 03:09:27;;;;;;;0.20;0.20;;;;;;;;;;4960320;28;20053;-90
2023/09/26 03:11:53;;;;;;;0.20;0.20;;;;;;;;;;4961060;28;20035;-89
2023/09/26 03:14:19;;;;;;;0.20;0.20;;;;;;;;;;4960737;28;20085;-89
2023/09/26 03:16:45;;;;;;;0.20;0.20;;;;;;;;;;4961568;28;20381;-89
2023/09/26 03:19:12;;;;;;;0.20;0.20;;;;;;;;;;4975907;28;20562;-89
2023/09/26 03:21:38;;;;;;;0.10;0.10;;;;;;;;;;4961099;28;20082;-89
2023/09/26 03:24:04;;;;;;;0.20;0.20;;;;;;;;;;4961032;28;20506;-90
2023/09/26 03:26:30;;;;;;;0.20;0.20;;;;;;;;;;4961166;28;20042;-90
2023/09/26 03:28:56;;;;;;;0.30;0.30;;;;;;;;;;4960471;28;20042;-89
2023/09/26 03:31:22;;;;;;;0.30;0.30;;;;;;;;;;4960560;28;20050;-88
2023/09/26 03:33:50;;;;;;;0.20;0.20;;;;;;;;;;4960779;28;20130;-89
2023/09/26 03:36:16;;;;;;;0.30;0.30;;;;;;;;;;4961141;28;20050;-88
2023/09/26 03:38:42;;;;;;;0.20;0.20;;;;;;;;;;4960278;28;20103;-88
2023/09/26 03:41:08;;;;;;;0.40;0.40;;;;;;;;;;4960418;28;20051;-90
2023/09/26 03:43:34;;;;;;;0.20;0.20;;;;;;;;;;4960497;28;20085;-89
2023/09/26 03:46:02;;;;;;;0.20;0.20;;;;;;;;;;4961112;28;20134;-89
2023/09/26 03:48:28;;;;;;;0.32;0.32;;;;;;;;;;4960676;28;20042;-90
2023/09/26 03:50:54;;;;;;;0.20;0.20;;;;;;;;;;4960371;28;20042;-89
2023/09/26 03:53:20;;;;;;;0.20;0.20;;;;;;;;;;4976357;28;20039;-89
2023/09/26 03:55:55;;;;;;;0.10;0.10;;;;;;;;;;4961172;28;20045;-90
2023/09/26 03:58:22;;;;;;;0.28;0.28;;;;;;;;;;4960493;28;20043;-89
2023/09/26 04:00:48;;;;;;;0.20;0.20;;;;;;;;;;4960212;28;20050;-89
2023/09/26 04:03:14;;;;;;;0.20;0.20;;;;;;;;;;4958795;28;20089;-89
2023/09/26 04:05:40;;;;;;;0.20;0.20;;;;;;;;;;4961255;28;20492;-89
2023/09/26 04:08:07;;;;;;;0.30;0.30;;;;;;;;;;4959961;28;20512;-89
2023/09/26 04:10:40;;;;;;;0.22;0.22;;;;;;;;;;4960595;28;20042;-88
2023/09/26 04:13:06;;;;;;;0.22;0.22;;;;;;;;;;4962849;28;20070;-89
2023/09/26 04:15:32;;;;;;;0.20;0.20;;;;;;;;;;4963268;28;20042;-89
2023/09/26 04:17:58;;;;;;;0.22;0.22;;;;;;;;;;4963109;28;20050;-88
2023/09/26 04:20:51;;;;;;;0.10;0.10;;;;;;;;;;4963911;28;20110;-90
2023/09/26 04:23:17;;;;;;;0.30;0.30;;;;;;;;;;4962668;28;20046;-89
2023/09/26 04:25:44;;;;;;;0.20;0.20;;;;;;;;;;4964233;28;20488;-88
2023/09/26 04:28:10;;;;;;;0.20;0.20;;;;;;;;;;4963036;28;20049;-90
2023/09/26 04:30:39;;;;;;;0.20;0.20;;;;;;;;;;4963722;28;20134;-89
2023/09/26 04:33:06;;;;;;;0.30;0.30;;;;;;;;;;4962751;28;20050;-90
2023/09/26 04:35:32;;;;;;;0.20;0.20;;;;;;;;;;4964609;28;20030;-89
2023/09/26 04:37:58;;;;;;;0.30;0.30;;;;;;;;;;4962463;28;20034;-88
2023/09/26 04:40:24;;;;;;;0.30;0.30;;;;;;;;;;4962280;28;20403;-89
2023/09/26 04:42:51;;;;;;;0.25;0.25;;;;;;;;;;4962035;28;20034;-89
2023/09/26 04:45:17;;;;;;;0.20;0.20;;;;;;;;;;4963758;28;20043;-90
2023/09/26 04:47:44;;;;;;;0.20;0.20;;;;;;;;;;4962948;28;20043;-88
2023/09/26 04:50:11;;;;;;;0.30;0.30;;;;;;;;;;4963444;28;20043;-88
2023/09/26 04:52:37;;;;;;;0.30;0.30;;;;;;;;;;4963389;28;20458;-90
2023/09/26 04:55:03;;;;;;;0.20;0.20;;;;;;;;;;4963118;28;20078;-91
2023/09/26 04:57:29;;;;;;;0.28;0.28;;;;;;;;;;4962532;28;20526;-89
2023/09/26 04:59:55;;;;;;;0.22;0.22;;;;;;;;;;4978190;28;20042;-88
2023/09/26 05:02:21;;;;;;;0.30;0.30;;;;;;;;;;4962115;28;20065;-88
2023/09/26 05:04:48;;;;;;;0.30;0.30;;;;;;;;;;4963212;28;20038;-90
2023/09/26 05:07:15;;;;;;;0.25;0.25;;;;;;;;;;4978875;28;20053;-89
2023/09/26 05:09:41;;;;;;;0.20;0.20;;;;;;;;;;4962017;28;20050;-88
2023/09/26 05:12:07;;;;;;;0.20;0.20;;;;;;;;;;4962155;28;20053;-88
2023/09/26 05:14:34;;;;;;;0.32;0.32;;;;;;;;;;4962614;28;20410;-90
2023/09/26 05:17:00;;;;;;;0.35;0.35;;;;;;;;;;4962785;28;20066;-89
2023/09/26 05:19:26;;;;;;;0.35;0.35;;;;;;;;;;4960615;28;20042;-87
2023/09/26 05:21:52;;;;;;;0.20;0.20;;;;;;;;;;4961657;28;20039;-88
2023/09/26 05:24:22;;;;;;;0.20;0.20;;;;;;;;;;4960499;28;20093;-89
2023/09/26 05:26:48;;;;;;;0.30;0.30;;;;;;;;;;4963245;28;20026;-90
2023/09/26 05:29:14;;;;;;;5.15;2.33;;;;;;;;;;4960976;28;20039;-89
2023/09/26 05:31:39;;;;;;;0.20;0.20;;;;;;;;;;4961269;28;20129;-90
2023/09/26 05:34:06;;;;;;;0.20;0.20;;;;;;;;;;4961221;28;20041;-89
2023/09/26 05:36:33;;;;;;;0.30;0.30;;;;;;;;;;4961615;28;20053;-89
2023/09/26 05:38:59;;;;;;;0.20;0.20;;;;;;;;;;4960523;28;20081;-88
2023/09/26 05:41:25;;;;;;;0.20;0.20;;;;;;;;;;4960563;28;20046;-88
2023/09/26 05:43:52;;;;;;;0.30;0.30;;;;;;;;;;4977357;28;20422;-90
2023/09/26 05:46:18;;;;;;;0.32;0.32;;;;;;;;;;4977818;28;20082;-89
2023/09/26 05:48:44;;;;;;;0.20;0.20;;;;;;;;;;4960498;28;20042;-89
2023/09/26 05:51:10;;;;;;;0.30;0.30;;;;;;;;;;4961529;28;20093;-89
2023/09/26 05:53:36;;;;;;;0.30;0.30;;;;;;;;;;4961401;28;20066;-88
2023/09/26 05:56:03;;;;;;;0.30;0.30;;;;;;;;;;4977002;28;20133;-89
2023/09/26 05:58:29;;;;;;;0.20;0.20;;;;;;;;;;4960968;28;20481;-89
2023/09/26 06:00:58;;;;;;;0.20;0.20;;;;;;;;;;4960720;28;20129;-89
2023/09/26 06:03:24;;;;;;;0.30;0.30;;;;;;;;;;4976451;28;20130;-90
2023/09/26 06:05:51;;;;;;;0.10;0.10;;;;;;;;;;4961517;28;20042;-90
2023/09/26 06:08:17;;;;;;;0.22;0.22;;;;;;;;;;4960793;28;20038;-89
2023/09/26 06:10:44;;;;;;;0.30;0.30;;;;;;;;;;4960494;28;20038;-89
2023/09/26 06:13:10;;;;;;;0.25;0.25;;;;;;;;;;4960227;28;20038;-89
2023/09/26 06:15:36;;;;;;;0.30;0.30;;;;;;;;;;4960628;28;20049;-87
2023/09/26 06:18:02;;;;;;;0.20;0.20;;;;;;;;;;4959883;28;20034;-89
2023/09/26 06:20:29;;;;;;;0.30;0.30;;;;;;;;;;4961801;28;20039;-90
2023/09/26 06:22:56;;;;;;;0.17;0.17;;;;;;;;;;4960221;28;20047;-89
2023/09/26 06:25:22;;;;;;;0.30;0.30;;;;;;;;;;4961441;28;20046;-89
2023/09/26 06:28:07;;;;;;;0.20;0.20;;;;;;;;;;4976526;28;20086;-89
2023/09/26 06:30:33;;;;;;;0.25;0.25;;;;;;;;;;4960785;28;20042;-90
2023/09/26 06:32:59;;;;;;;0.25;0.25;;;;;;;;;;4960748;28;20043;-90
2023/09/26 06:35:25;;;;;;;0.30;0.30;;;;;;;;;;4960530;28;20410;-90
2023/09/26 06:37:51;;;;;;;0.30;0.30;;;;;;;;;;4960063;28;20046;-89
2023/09/26 06:40:17;;;;;;;0.17;0.17;;;;;;;;;;4961270;28;20049;-89
2023/09/26 06:42:43;;;;;;;0.20;0.20;;;;;;;;;;4961358;28;20344;-89
2023/09/26 06:45:10;;;;;;;0.20;0.20;;;;;;;;;;4976786;28;20039;-90
2023/09/26 06:47:36;;;;;;;0.20;0.20;;;;;;;;;;4959608;28;20042;-88
2023/09/26 06:50:05;;;;;;;0.20;0.20;;;;;;;;;;4976263;28;20047;-89
2023/09/26 06:52:31;;;;;;;0.38;0.38;;;;;;;;;;4953350;29;20090;-88
2023/09/26 06:54:57;;;;;;;0.40;0.40;;;;;;;;;;4941342;28;20047;-89
2023/09/26 06:57:26;;;;;;;0.30;0.30;;;;;;;;;;4960063;28;20038;-90
2023/09/26 06:59:52;;;;;;;0.30;0.30;;;;;;;;;;4959955;28;20046;-90
2023/09/26 07:02:19;;;;;;;0.30;0.30;;;;;;;;;;4959199;28;20093;-89
2023/09/26 07:04:52;;;;;;;0.22;0.22;;;;;;;;;;4959794;28;20046;-89
2023/09/26 07:07:18;;;;;;;0.30;0.30;;;;;;;;;;4960267;28;20057;-89
2023/09/26 07:09:44;;;;;;;0.20;0.20;;;;;;;;;;4975642;28;20038;-89
2023/09/26 07:12:10;;;;;;;0.20;0.20;;;;;;;;;;4960127;28;20373;-89
2023/09/26 07:14:37;;;;;;;0.20;0.20;;;;;;;;;;4960074;28;20411;-90
2023/09/26 07:17:03;;;;;;;0.30;0.30;;;;;;;;;;4960559;28;20038;-88
2023/09/26 07:19:32;;;;;;;0.20;0.20;;;;;;;;;;4960208;28;20074;-88
2023/09/26 07:21:59;;;;;;;0.20;0.20;;;;;;;;;;4977019;28;20041;-89
2023/09/26 07:24:26;;;;;;;0.25;0.25;;;;;;;;;;4975583;28;20038;-89
2023/09/26 07:26:52;;;;;;;0.20;0.20;;;;;;;;;;4960444;28;20555;-88
2023/09/26 07:29:18;;;;;;;0.25;0.25;;;;;;;;;;4959606;28;20174;-89
2023/09/26 07:31:52;;;;;;;0.20;0.20;;;;;;;;;;4945058;28;20039;-89
2023/09/26 07:34:36;;;;;;;0.30;0.30;;;;;;;;;;4959700;28;20121;-89
2023/09/26 07:37:02;;;;;;;0.20;0.20;;;;;;;;;;4976742;28;20042;-88
2023/09/26 07:39:28;;;;;;;0.35;0.35;;;;;;;;;;4958914;28;20042;-89
2023/09/26 07:41:54;;;;;;;0.20;0.20;;;;;;;;;;4959448;28;20047;-90
2023/09/26 07:44:20;;;;;;;0.20;0.20;;;;;;;;;;4975034;28;20099;-90
2023/09/26 07:46:46;;;;;;;0.28;0.28;;;;;;;;;;4961352;28;20133;-89
2023/09/26 07:49:13;;;;;;;0.22;0.22;;;;;;;;;;4962085;28;20050;-90
2023/09/26 07:51:39;;;;;;;0.30;0.30;;;;;;;;;;4963083;28;20089;-89
2023/09/26 07:54:21;;;;;;;0.20;0.20;;;;;;;;;;4962569;28;20046;-89
2023/09/26 07:56:47;;;;;;;0.30;0.30;;;;;;;;;;4963447;28;20046;-90
2023/09/26 07:59:13;;;;;;;0.20;0.20;;;;;;;;;;4963071;28;20038;-89
2023/09/26 08:01:52;;;;;;;0.20;0.20;;;;;;;;;;4953893;28;20043;-89
2023/09/26 08:04:18;;;;;;;0.30;0.30;;;;;;;;;;4963264;28;20472;-90
2023/09/26 08:06:45;;;;;;;0.20;0.20;;;;;;;;;;4963254;28;20043;-89
2023/09/26 08:09:11;;;;;;;0.17;0.17;;;;;;;;;;4956263;28;20076;-89
2023/09/26 08:11:52;;;;;;;0.30;0.30;;;;;;;;;;4951325;29;20043;-89
2023/09/26 08:14:35;;;;;;;0.28;0.28;;;;;;;;;;4943907;29;20047;-88
2023/09/26 08:17:01;;;;;;;0.20;0.20;;;;;;;;;;4944006;29;20043;-89
2023/09/26 08:19:27;;;;;;;0.30;0.30;;;;;;;;;;4970520;28;20069;-89
2023/09/26 08:21:53;;;;;;;0.20;0.20;;;;;;;;;;4962558;28;20126;-88
2023/09/26 08:24:19;;;;;;;0.20;0.20;;;;;;;;;;4961527;28;20055;-89
2023/09/26 08:26:45;;;;;;;0.30;0.30;;;;;;;;;;4946719;29;20047;-88
2023/09/26 08:29:11;;;;;;;0.10;0.10;;;;;;;;;;4959733;29;20122;-89
2023/09/26 08:31:37;;;;;;;0.30;0.30;;;;;;;;;;4948680;28;20038;-89
2023/09/26 08:34:03;;;;;;;0.30;0.30;;;;;;;;;;4962418;28;20046;-89
2023/09/26 08:36:30;;;;;;;0.30;0.30;;;;;;;;;;4978948;28;20046;-89
2023/09/26 08:38:56;;;;;;;0.30;0.30;;;;;;;;;;4962351;28;20491;-89
2023/09/26 08:41:33;;;;;;;0.20;0.20;;;;;;;;;;4973946;28;20035;-90
2023/09/26 08:43:59;;;;;;;0.20;0.20;;;;;;;;;;4961987;28;20045;-89
2023/09/26 08:46:25;;;;;;;0.30;0.30;;;;;;;;;;4962392;28;20766;-90
2023/09/26 08:48:52;;;;;;;0.20;0.20;;;;;;;;;;4945919;28;20209;-90
2023/09/26 08:51:18;;;;;;;0.10;0.10;;;;;;;;;;4962552;28;20065;-91
2023/09/26 08:53:44;;;;;;;0.20;0.20;;;;;;;;;;4976319;28;20447;-89
2023/09/26 08:56:10;;;;;;;0.20;0.20;;;;;;;;;;4962074;28;20125;-91
2023/09/26 08:58:36;;;;;;;0.20;0.20;;;;;;;;;;4952925;28;20043;-91
2023/09/26 09:01:02;;;;;;;0.30;0.30;;;;;;;;;;4963876;28;20055;-91
2023/09/26 09:03:30;;;;;;;0.30;0.30;;;;;;;;;;4957849;28;20090;-89
2023/09/26 09:05:56;;;;;;;0.30;0.30;;;;;;;;;;4956005;28;20085;-90
2023/09/26 09:08:22;;;;;;;0.10;0.10;;;;;;;;;;4959015;28;20034;-90
2023/09/26 09:10:52;;;;;;;0.22;0.22;;;;;;;;;;4964936;28;20039;-92
2023/09/26 09:13:31;;;;;;;0.20;0.20;;;;;;;;;;4958703;29;20122;-90
2023/09/26 09:16:14;;;;;;;0.20;0.20;;;;;;;;;;4955516;28;20039;-91
2023/09/26 09:18:42;;;;;;;0.25;0.25;;;;;;;;;;4956828;28;20082;-90
2023/09/26 09:21:29;;;;;;;0.20;0.20;;;;;;;;;;4963746;28;20034;-90
2023/09/26 09:23:56;;;;;;;0.20;0.20;;;;;;;;;;4944029;29;20043;-90
2023/09/26 09:26:23;;;;;;;0.20;0.20;;;;;;;;;;4958701;28;20384;-90
2023/09/26 09:28:51;;;;;;;0.30;0.30;;;;;;;;;;4961925;28;20062;-90
2023/09/26 09:31:18;;;;;;;0.22;0.22;;;;;;;;;;4944890;29;20491;-90
2023/09/26 09:33:47;;;;;;;0.17;0.17;;;;;;;;;;4944366;28;20050;-91
2023/09/26 09:36:14;;;;;;;0.20;0.20;;;;;;;;;;4957888;28;20031;-90
2023/09/26 09:38:40;;;;;;;0.20;0.20;;;;;;;;;;4958768;28;20058;-90
2023/09/26 09:41:07;;;;;;;0.20;0.20;;;;;;;;;;4962422;28;20069;-92
2023/09/26 09:43:36;;;;;;;0.30;0.30;;;;;;;;;;4950929;28;20462;-94
2023/09/26 09:46:14;;;;;;;0.10;0.10;;;;;;;;;;4961749;28;20058;-94
2023/09/26 09:48:46;;;;;;;0.20;0.20;;;;;;;;;;4959333;28;20050;-94
2023/09/26 09:51:16;;;;;;;0.20;0.20;;;;;;;;;;4961514;28;20090;-93
2023/09/26 09:53:43;;;;;;;0.30;0.30;;;;;;;;;;4943642;29;20067;-93
2023/09/26 09:56:12;;;;;;;0.20;0.20;;;;;;;;;;4945101;28;20046;-94
2023/09/26 09:58:44;;;;;;;0.20;0.20;;;;;;;;;;4944891;28;20043;-94
2023/09/26 10:01:20;;;;;;;0.30;0.30;;;;;;;;;;4967430;28;20051;-94
2023/09/26 10:03:48;;;;;;;0.20;0.20;;;;;;;;;;4960622;28;20088;-93
2023/09/26 10:06:14;;;;;;;0.28;0.28;;;;;;;;;;4965629;28;20019;-94
2023/09/26 10:08:43;;;;;;;0.20;0.20;;;;;;;;;;4959130;28;20113;-93
2023/09/26 10:11:12;;;;;;;4.88;0.98;;;;;;;;;;4960904;28;20129;-94
2023/09/26 10:13:53;;;;;;;0.30;0.30;;;;;;;;;;4944042;29;20041;-91
2023/09/26 10:16:19;;;;;;;0.20;0.20;;;;;;;;;;4954185;28;20169;-92
2023/09/26 10:18:46;;;;;;;0.03;0.03;;;;;;;;;;4946236;29;20130;-93
2023/09/26 10:21:25;;;;;;;0.10;0.10;;;;;;;;;;4944635;29;20039;-93
2023/09/26 10:27:21;;;;;;;0.10;0.10;;;;;;;;;;4985037;28;20054;-92
2023/09/26 10:29:52;;;;;;;0.20;0.20;;;;;;;;;;4967844;28;20126;-94
2023/09/26 10:32:32;;;;;;;0.20;0.20;;;;;;;;;;4944868;28;20043;-92
2023/09/26 10:34:59;;;;;;;0.15;0.15;;;;;;;;;;4948220;28;20034;-92
2023/09/26 10:37:38;;;;;;;0.20;0.20;;;;;;;;;;4963711;28;20038;-93
2023/09/26 10:40:08;;;;;;;0.20;0.20;;;;;;;;;;4978960;28;20034;-93
2023/09/26 10:42:47;;;;;;;0.10;0.10;;;;;;;;;;4958492;29;20026;-93
2023/09/26 10:45:13;;;;;;;0.20;0.20;;;;;;;;;;4960646;28;20046;-94
2023/09/26 10:47:40;;;;;;;0.20;0.20;;;;;;;;;;4952793;28;20186;-93
2023/09/26 10:50:42;;;;;;;0.10;0.10;;;;;;;;;;4942841;28;20125;-92
2023/09/26 10:53:24;;;;;;;0.10;0.10;;;;;;;;;;4977384;28;20062;-94
2023/09/26 10:55:53;;;;;;;0.10;0.10;;;;;;;;;;4963011;28;20558;-92
2023/09/26 10:58:20;;;;;;;0.20;0.20;;;;;;;;;;4962248;28;20034;-94
2023/09/26 11:00:57;;;;;;;0.20;0.20;;;;;;;;;;4962661;28;20042;-94
2023/09/26 11:03:23;;;;;;;0.30;0.30;;;;;;;;;;4962455;28;20022;-94
2023/09/26 11:05:50;;;;;;;0.20;0.20;;;;;;;;;;4965111;28;20064;-92
2023/09/26 11:08:16;;;;;;;0.08;0.08;;;;;;;;;;4961106;28;20043;-93
2023/09/26 11:10:46;;;;;;;0.20;0.20;;;;;;;;;;4962249;28;20047;-93
2023/09/26 11:13:13;;;;;;;0.10;0.10;;;;;;;;;;4978884;28;20039;-92
2023/09/26 11:15:39;;;;;;;0.20;0.20;;;;;;;;;;4955254;28;20441;-93
2023/09/26 11:18:09;;;;;;;0.20;0.20;;;;;;;;;;4975590;28;20653;-93
2023/09/26 11:20:37;;;;;;;0.20;0.20;;;;;;;;;;4963406;28;20042;-94
2023/09/26 11:23:03;;;;;;;0.10;0.10;;;;;;;;;;4965426;28;20038;-93
2023/09/26 11:25:31;;;;;;;0.15;0.15;;;;;;;;;;4960353;29;20141;-93
2023/09/26 11:27:59;;;;;;;0.20;0.20;;;;;;;;;;4946572;29;20039;-94
2023/09/26 11:30:25;;;;;;;0.20;0.20;;;;;;;;;;4962978;28;20146;-93
2023/09/26 11:32:54;;;;;;;0.20;0.20;;;;;;;;;;4965600;28;20046;-92
2023/09/26 11:35:21;;;;;;;0.10;0.10;;;;;;;;;;4965360;28;20101;-93
2023/09/26 11:37:51;;;;;;;0.17;0.17;;;;;;;;;;4946417;28;20036;-94
2023/09/26 11:40:22;;;;;;;0.10;0.10;;;;;;;;;;4969120;28;20122;-92
2023/09/26 11:42:50;;;;;;;0.10;0.10;;;;;;;;;;4931790;29;20127;-94
2023/09/26 11:45:22;;;;;;;0.20;0.20;;;;;;;;;;4947610;28;20054;-94
2023/09/26 11:47:49;;;;;;;0.30;0.30;;;;;;;;;;4952387;28;20134;-92
2023/09/26 11:50:16;;;;;;;0.10;0.10;;;;;;;;;;4964528;28;20042;-93
2023/09/26 11:52:42;;;;;;;0.10;0.10;;;;;;;;;;4963870;28;20047;-94
2023/09/26 11:55:08;;;;;;;0.10;0.10;;;;;;;;;;4958219;29;20043;-92
2023/09/26 11:57:36;;;;;;;0.10;0.10;;;;;;;;;;4944966;29;20103;-93
2023/09/26 12:00:08;;;;;;;0.20;0.20;;;;;;;;;;4945908;29;20468;-92
2023/09/26 12:02:34;;;;;;;0.10;0.10;;;;;;;;;;4945622;29;20039;-92
2023/09/26 12:05:03;;;;;;;0.10;0.10;;;;;;;;;;4962987;28;20109;-94
2023/09/26 12:07:29;;;;;;;0.08;0.08;;;;;;;;;;4964797;28;20047;-93
2023/09/26 12:09:55;;;;;;;0.13;0.13;;;;;;;;;;4965421;28;20050;-93
2023/09/26 12:12:21;;;;;;;0.10;0.10;;;;;;;;;;4964805;28;20046;-93
2023/09/26 12:14:48;;;;;;;0.10;0.10;;;;;;;;;;4965354;28;20051;-94
2023/09/26 12:17:14;;;;;;;0.08;0.08;;;;;;;;;;4965387;28;20459;-93
2023/09/26 12:19:40;;;;;;;0.20;0.20;;;;;;;;;;4962368;28;20545;-92
2023/09/26 12:22:09;;;;;;;0.25;0.25;;;;;;;;;;4956604;28;20035;-93
2023/09/26 12:24:36;;;;;;;0.10;0.10;;;;;;;;;;4965953;28;20061;-94
2023/09/26 12:27:06;;;;;;;0.17;0.17;;;;;;;;;;4965639;28;20502;-92
2023/09/26 12:29:32;;;;;;;0.28;0.28;;;;;;;;;;4965574;28;20043;-94
2023/09/26 12:32:00;;;;;;;0.20;0.20;;;;;;;;;;4963127;28;20082;-92
2023/09/26 12:34:26;;;;;;;0.05;0.05;;;;;;;;;;4957265;29;20046;-93
2023/09/26 12:36:53;;;;;;;0.30;0.30;;;;;;;;;;4955443;29;20100;-93
2023/09/26 12:39:19;;;;;;;0.10;0.10;;;;;;;;;;4959007;28;20085;-93
2023/09/26 12:41:45;;;;;;;0.15;0.15;;;;;;;;;;4964971;28;20406;-92
2023/09/26 12:44:12;;;;;;;0.10;0.10;;;;;;;;;;4963008;28;20110;-94
2023/09/26 12:46:38;;;;;;;0.10;0.10;;;;;;;;;;4965859;28;20042;-93
2023/09/26 12:49:04;;;;;;;0.10;0.10;;;;;;;;;;4964507;28;20039;-92
2023/09/26 12:51:30;;;;;;;0.10;0.10;;;;;;;;;;4965707;28;20046;-93
2023/09/26 12:53:57;;;;;;;0.10;0.10;;;;;;;;;;4965009;28;20065;-92
2023/09/26 12:56:23;;;;;;;0.10;0.10;;;;;;;;;;4965274;28;20039;-94
2023/09/26 12:58:49;;;;;;;0.10;0.10;;;;;;;;;;4964011;28;20110;-93
2023/09/26 13:01:15;;;;;;;0.10;0.10;;;;;;;;;;4963916;28;20089;-92
2023/09/26 13:03:41;;;;;;;0.05;0.05;;;;;;;;;;4964115;28;20530;-93
2023/09/26 13:06:07;;;;;;;0.13;0.13;;;;;;;;;;4965330;28;20027;-92
2023/09/26 13:08:36;;;;;;;0.17;0.17;;;;;;;;;;4965705;28;20415;-95
2023/09/26 13:11:02;;;;;;;0.15;0.15;;;;;;;;;;4968445;28;20046;-93
2023/09/26 13:13:33;;;;;;;0.20;0.20;;;;;;;;;;4965963;28;20093;-88
2023/09/26 13:16:00;;;;;;;0.03;0.03;;;;;;;;;;4965512;28;20117;-88
2023/09/26 13:18:30;;;;;;;0.10;0.10;;;;;;;;;;4980449;28;20039;-88
2023/09/26 13:20:56;;;;;;;0.10;0.10;;;;;;;;;;4966084;28;20423;-91
2023/09/26 13:23:25;;;;;;;0.10;0.10;;;;;;;;;;4964100;28;20041;-88
2023/09/26 13:25:54;;;;;;;0.10;0.10;;;;;;;;;;4962971;28;20039;-87
2023/09/26 13:28:20;;;;;;;0.10;0.10;;;;;;;;;;4962300;28;20043;-88
2023/09/26 13:30:46;;;;;;;0.20;0.20;;;;;;;;;;4961542;28;20047;-89
2023/09/26 13:33:14;;;;;;;0.25;0.25;;;;;;;;;;4961899;28;20510;-89
2023/09/26 13:35:41;;;;;;;0.10;0.10;;;;;;;;;;4979443;28;20050;-89
2023/09/26 13:38:07;;;;;;;0.15;0.15;;;;;;;;;;4942061;29;20043;-89
2023/09/26 13:40:33;;;;;;;0.20;0.20;;;;;;;;;;4942389;29;20039;-90
2023/09/26 13:42:59;;;;;;;0.20;0.20;;;;;;;;;;4957827;29;20134;-89
2023/09/26 13:45:28;;;;;;;0.10;0.10;;;;;;;;;;4974149;28;20047;-90
2023/09/26 13:47:55;;;;;;;0.10;0.10;;;;;;;;;;4961172;28;20049;-88
2023/09/26 13:50:21;;;;;;;0.10;0.10;;;;;;;;;;4962071;28;20121;-89
2023/09/26 13:52:57;;;;;;;0.30;0.30;;;;;;;;;;4963103;28;20038;-88
2023/09/26 13:55:23;;;;;;;0.22;0.22;;;;;;;;;;4978215;28;20042;-89
2023/09/26 13:57:52;;;;;;;0.20;0.20;;;;;;;;;;4961281;28;20039;-89
2023/09/26 14:00:18;;;;;;;0.13;0.13;;;;;;;;;;4978058;28;20066;-89
2023/09/26 14:02:45;;;;;;;0.20;0.20;;;;;;;;;;4961224;28;20102;-89
2023/09/26 14:05:13;;;;;;;0.10;0.10;;;;;;;;;;4962825;28;20138;-89
2023/09/26 14:07:39;;;;;;;0.30;0.30;;;;;;;;;;4960916;28;20053;-89
2023/09/26 14:10:05;;;;;;;0.13;0.13;;;;;;;;;;4962049;28;20042;-89
2023/09/26 14:12:32;;;;;;;0.10;0.10;;;;;;;;;;4962305;28;20082;-91
2023/09/26 14:14:57;;;;;;;0.10;0.10;;;;;;;;;;4962659;28;20047;-89
2023/09/26 14:17:23;;;;;;;0.20;0.20;;;;;;;;;;4962598;28;20097;-88
2023/09/26 14:19:50;;;;;;;0.15;0.15;;;;;;;;;;4963131;28;20059;-91
2023/09/26 14:22:16;;;;;;;0.10;0.10;;;;;;;;;;4946497;28;20049;-89
2023/09/26 14:24:42;;;;;;;0.10;0.10;;;;;;;;;;4962745;28;20411;-90
2023/09/26 14:27:08;;;;;;;0.00;0.00;;;;;;;;;;4961383;28;20475;-89
2023/09/26 14:29:34;;;;;;;0.20;0.20;;;;;;;;;;4961189;28;20081;-90
2023/09/26 14:32:00;;;;;;;0.10;0.10;;;;;;;;;;4962026;28;20035;-90
2023/09/26 14:34:26;;;;;;;0.20;0.20;;;;;;;;;;4961806;28;20097;-90
2023/09/26 14:36:52;;;;;;;0.10;0.10;;;;;;;;;;4962301;28;20039;-89
2023/09/26 14:39:18;;;;;;;0.15;0.15;;;;;;;;;;4961292;28;20510;-90
2023/09/26 14:41:45;;;;;;;0.20;0.20;;;;;;;;;;4956295;28;20070;-89
2023/09/26 14:44:11;;;;;;;0.00;0.00;;;;;;;;;;4961327;28;20046;-91
2023/09/26 14:46:38;;;;;;;0.03;0.03;;;;;;;;;;4952920;28;20035;-89
2023/09/26 14:49:04;;;;;;;0.13;0.13;;;;;;;;;;4941701;28;20039;-89